createdAt,value
2023-06-03T00:01:05.136Z,4.87
2023-06-03T00:03:09.472Z,4.60
2023-06-03T00:05:17.179Z,4.70
2023-06-03T00:07:19.600Z,4.83
2023-06-03T00:09:21.807Z,4.67
2023-06-03T00:11:26.973Z,4.27
2023-06-03T00:13:29.300Z,4.47
2023-06-03T00:15:32.535Z,4.60
2023-06-03T00:17:34.660Z,4.60
2023-06-03T00:19:38.025Z,4.57
2023-06-03T00:21:44.213Z,4.83
2023-06-03T00:23:46.025Z,4.57
2023-06-03T00:25:49.410Z,4.10
2023-06-03T00:27:53.510Z,5.30
2023-06-03T00:29:56.853Z,4.33
2023-06-03T00:31:58.919Z,5.27
2023-06-03T00:34:01.253Z,4.80
2023-06-03T00:36:05.305Z,4.43
2023-06-03T00:38:16.800Z,4.60
2023-06-03T00:40:20.449Z,4.17
2023-06-03T00:42:25.246Z,4.47
2023-06-03T00:44:31.240Z,4.00
2023-06-03T00:46:34.990Z,5.03
2023-06-03T00:48:45.304Z,5.50
2023-06-03T00:50:47.376Z,4.07
2023-06-03T00:52:55.763Z,3.93
2023-06-03T00:55:00.835Z,4.37
2023-06-03T00:57:13.735Z,4.70
2023-06-03T00:59:19.240Z,4.37
2023-06-03T01:01:20.999Z,4.83
2023-06-03T01:03:25.898Z,4.17
2023-06-03T01:05:28.224Z,4.10
2023-06-03T01:07:43.182Z,4.20
2023-06-03T01:09:58.971Z,4.67
2023-06-03T01:12:16.737Z,4.00
2023-06-03T01:14:23.683Z,4.17
2023-06-03T01:16:26.811Z,4.03
2023-06-03T01:18:29.781Z,5.07
2023-06-03T01:20:32.905Z,4.80
2023-06-03T01:22:39.220Z,4.47
2023-06-03T01:24:42.416Z,5.23
2023-06-03T01:26:44.235Z,4.50
2023-06-03T01:28:45.914Z,4.23
2023-06-03T01:30:51.676Z,4.00
2023-06-03T01:32:54.238Z,4.73
2023-06-03T01:34:56.825Z,5.33
2023-06-03T01:37:01.770Z,4.00
2023-06-03T01:39:03.990Z,4.80
2023-06-03T01:41:17.448Z,4.40
2023-06-03T01:43:27.716Z,3.50
2023-06-03T01:45:29.658Z,4.77
2023-06-03T01:47:31.911Z,4.50
2023-06-03T01:49:33.754Z,4.67
2023-06-03T01:51:37.402Z,5.27
2023-06-03T01:53:39.164Z,4.53
2023-06-03T01:55:41.736Z,4.83
2023-06-03T01:57:45.175Z,4.10
2023-06-03T01:59:46.919Z,5.50
2023-06-03T02:01:51.117Z,5.03
2023-06-03T02:03:52.973Z,4.50
2023-06-03T02:05:54.719Z,4.57
2023-06-03T02:07:56.600Z,4.50
2023-06-03T02:09:58.997Z,4.67
2023-06-03T02:12:01.693Z,4.80
2023-06-03T02:14:04.839Z,4.43
2023-06-03T02:16:07.531Z,5.10
2023-06-03T02:18:11.349Z,4.20
2023-06-03T02:20:15.847Z,4.47
2023-06-03T02:22:21.452Z,4.33
2023-06-03T02:24:23.712Z,4.60
2023-06-03T02:26:25.600Z,5.23
2023-06-03T02:28:27.370Z,5.43
2023-06-03T02:30:30.663Z,4.90
2023-06-03T02:32:32.619Z,5.10
2023-06-03T02:34:35.541Z,5.17
2023-06-03T02:36:37.389Z,5.00
2023-06-03T02:38:40.989Z,4.57
2023-06-03T02:40:42.754Z,4.20
2023-06-03T02:42:44.707Z,4.90
2023-06-03T02:44:46.430Z,4.23
2023-06-03T02:46:49.657Z,4.73
2023-06-03T02:48:51.796Z,4.60
2023-06-03T02:50:53.642Z,4.50
2023-06-03T02:52:57.971Z,5.07
2023-06-03T02:54:59.678Z,4.83
2023-06-03T02:57:02.861Z,5.53
2023-06-03T02:59:05.457Z,4.90
2023-06-03T03:01:09.826Z,5.13
2023-06-03T03:03:13.380Z,4.80
2023-06-03T03:05:15.327Z,5.20
2023-06-03T03:07:16.977Z,5.33
2023-06-03T03:09:20.060Z,5.17
2023-06-03T03:11:24.050Z,5.10
2023-06-03T03:13:28.971Z,5.27
2023-06-03T03:15:33.166Z,4.80
2023-06-03T03:17:36.378Z,4.90
2023-06-03T03:19:39.457Z,4.00
2023-06-03T03:21:41.186Z,4.40
2023-06-03T03:23:42.987Z,5.00
2023-06-03T03:25:45.431Z,4.73
2023-06-03T03:27:48.054Z,4.93
2023-06-03T03:29:49.767Z,4.70
2023-06-03T03:31:57.837Z,4.80
2023-06-03T03:34:02.315Z,5.00
2023-06-03T03:36:06.345Z,5.90
2023-06-03T03:38:09.854Z,5.33
2023-06-03T03:40:19.268Z,5.93
2023-06-03T03:42:21.251Z,4.50
2023-06-03T03:44:23.845Z,6.40
2023-06-03T03:46:26.054Z,5.60
2023-06-03T03:48:31.354Z,5.03
2023-06-03T03:50:43.286Z,4.63
2023-06-03T03:52:50.601Z,5.17
2023-06-03T03:54:54.738Z,5.20
2023-06-03T03:56:58.223Z,5.50
2023-06-03T03:59:04.677Z,4.83
2023-06-03T04:01:08.860Z,5.37
2023-06-03T04:03:12.784Z,5.20
2023-06-03T04:05:15.483Z,5.30
2023-06-03T04:07:19.641Z,5.30
2023-06-03T04:09:23.913Z,5.00
2023-06-03T04:11:28.040Z,4.37
2023-06-03T04:13:37.079Z,6.17
2023-06-03T04:15:38.692Z,5.17
2023-06-03T04:17:42.245Z,6.20
2023-06-03T04:19:43.871Z,6.10
2023-06-03T04:21:46.073Z,5.60
2023-06-03T04:23:50.283Z,5.87
2023-06-03T04:25:54.084Z,5.90
2023-06-03T04:27:55.710Z,5.43
2023-06-03T04:29:57.475Z,6.47
2023-06-03T04:31:59.314Z,6.40
2023-06-03T04:34:01.495Z,5.20
2023-06-03T04:36:07.289Z,4.93
2023-06-03T04:38:11.379Z,5.40
2023-06-03T04:40:13.329Z,5.70
2023-06-03T04:42:17.185Z,5.60
2023-06-03T04:44:18.792Z,4.67
2023-06-03T04:46:20.481Z,5.17
2023-06-03T04:48:22.213Z,3.80
2023-06-03T04:50:23.871Z,4.40
2023-06-03T04:52:25.456Z,5.13
2023-06-03T04:54:33.227Z,5.90
2023-06-03T04:56:34.821Z,5.27
2023-06-03T04:58:38.601Z,4.80
2023-06-03T05:00:43.335Z,5.40
2023-06-03T05:02:45.186Z,4.97
2023-06-03T05:04:47.001Z,5.60
2023-06-03T05:06:50.158Z,5.10
2023-06-03T05:08:52.230Z,5.60
2023-06-03T05:10:54.047Z,5.43
2023-06-03T05:12:58.501Z,5.33
2023-06-03T05:15:01.705Z,5.10
2023-06-03T05:17:03.807Z,5.20
2023-06-03T05:19:06.528Z,6.07
2023-06-03T05:21:08.806Z,5.33
2023-06-03T05:23:10.628Z,5.93
2023-06-03T05:25:12.609Z,5.17
2023-06-03T05:27:14.438Z,5.03
2023-06-03T05:29:16.113Z,5.10
2023-06-03T05:31:20.362Z,5.30
2023-06-03T05:33:27.359Z,5.83
2023-06-03T05:35:30.962Z,5.40
2023-06-03T05:37:32.759Z,5.23
2023-06-03T05:39:34.413Z,5.50
2023-06-03T05:41:36.158Z,4.90
2023-06-03T05:43:37.833Z,5.30
2023-06-03T05:45:39.593Z,5.43
2023-06-03T05:47:42.746Z,6.10
2023-06-03T05:49:45.322Z,5.67
2023-06-03T05:51:48.144Z,5.20
2023-06-03T05:53:49.900Z,6.50
2023-06-03T05:55:52.250Z,5.80
2023-06-03T05:57:54.266Z,5.33
2023-06-03T05:59:55.922Z,5.77
2023-06-03T06:01:57.873Z,5.70
2023-06-03T06:04:01.355Z,5.57
2023-06-03T06:06:03.247Z,4.10
2023-06-03T06:08:10.617Z,4.80
2023-06-03T06:10:12.264Z,4.10
2023-06-03T06:12:14.209Z,5.23
2023-06-03T06:14:16.300Z,4.27
2023-06-03T06:16:18.007Z,4.13
2023-06-03T06:18:22.976Z,3.90
2023-06-03T06:20:26.399Z,4.40
2023-06-03T06:22:28.055Z,4.13
2023-06-03T06:24:31.472Z,5.47
2023-06-03T06:26:36.457Z,4.77
2023-06-03T06:28:38.571Z,5.97
2023-06-03T06:30:40.453Z,5.67
2023-06-03T06:32:49.045Z,6.00
2023-06-03T06:34:50.840Z,6.17
2023-06-03T06:36:54.340Z,5.23
2023-06-03T06:38:56.920Z,5.37
2023-06-03T06:40:59.013Z,5.20
2023-06-03T06:43:01.273Z,4.93
2023-06-03T06:45:09.009Z,5.50
2023-06-03T06:47:11.214Z,5.80
2023-06-03T06:49:13.261Z,5.90
2023-06-03T06:51:16.006Z,5.47
2023-06-03T06:53:20.382Z,5.27
2023-06-03T06:55:39.490Z,5.90
2023-06-03T06:57:41.230Z,5.60
2023-06-03T06:59:43.025Z,6.23
2023-06-03T07:01:44.811Z,5.87
2023-06-03T07:03:46.707Z,5.37
2023-06-03T07:05:48.632Z,5.17
2023-06-03T07:07:52.842Z,5.60
2023-06-03T07:09:56.264Z,5.90
2023-06-03T07:11:58.287Z,5.43
2023-06-03T07:14:00.037Z,5.10
2023-06-03T07:16:07.122Z,6.10
2023-06-03T07:18:10.693Z,5.80
2023-06-03T07:20:20.024Z,5.63
2023-06-03T07:22:21.856Z,5.60
2023-06-03T07:24:23.619Z,5.60
2023-06-03T07:26:27.711Z,5.40
2023-06-03T07:28:32.294Z,5.80
2023-06-03T07:30:35.585Z,6.20
2023-06-03T07:32:38.442Z,5.50
2023-06-03T07:34:41.405Z,5.30
2023-06-03T07:36:43.182Z,5.97
2023-06-03T07:38:59.084Z,5.60
2023-06-03T07:41:00.991Z,5.60
2023-06-03T07:43:04.338Z,5.93
2023-06-03T07:45:07.554Z,5.43
2023-06-03T07:47:09.656Z,5.80
2023-06-03T07:49:12.800Z,5.20
2023-06-03T07:51:15.327Z,4.07
2023-06-03T07:53:25.354Z,5.17
2023-06-03T07:55:27.905Z,5.50
2023-06-03T07:57:29.662Z,6.43
2023-06-03T07:59:35.311Z,5.17
2023-06-03T08:01:37.845Z,6.13
2023-06-03T08:03:39.801Z,6.20
2023-06-03T08:05:42.033Z,6.57
2023-06-03T08:07:44.478Z,5.23
2023-06-03T08:09:48.052Z,5.17
2023-06-03T08:11:51.632Z,4.93
2023-06-03T08:13:54.897Z,5.20
2023-06-03T08:16:00.014Z,4.23
2023-06-03T08:18:05.096Z,4.63
2023-06-03T08:20:07.841Z,5.40
2023-06-03T08:22:33.902Z,7.10
2023-06-03T08:24:35.688Z,4.60
2023-06-03T08:26:37.398Z,4.17
2023-06-03T08:28:39.265Z,4.27
2023-06-03T08:30:43.614Z,4.93
2023-06-03T08:32:47.760Z,4.53
2023-06-03T08:34:53.590Z,5.00
2023-06-03T08:36:57.009Z,4.97
2023-06-03T08:38:59.296Z,4.60
2023-06-03T08:41:01.333Z,4.60
2023-06-03T08:43:07.428Z,5.20
2023-06-03T08:45:13.228Z,4.97
2023-06-03T08:47:24.292Z,6.07
2023-06-03T08:49:37.340Z,5.93
2023-06-03T08:51:40.910Z,4.83
2023-06-03T08:53:48.057Z,4.27
2023-06-03T08:55:54.375Z,5.10
2023-06-03T08:58:04.895Z,4.30
2023-06-03T09:00:09.018Z,5.13
2023-06-03T09:02:12.029Z,5.80
2023-06-03T09:04:17.437Z,6.03
2023-06-03T09:06:22.599Z,4.67
2023-06-03T09:08:27.833Z,5.63
2023-06-03T09:10:31.767Z,5.77
2023-06-03T09:12:34.716Z,6.13
2023-06-03T09:14:40.422Z,5.87
2023-06-03T09:16:43.015Z,4.87
2023-06-03T09:18:45.685Z,5.47
2023-06-03T09:20:48.059Z,5.63
2023-06-03T09:23:00.186Z,4.33
2023-06-03T09:25:02.763Z,4.77
2023-06-03T09:27:05.281Z,4.73
2023-06-03T09:29:07.081Z,6.50
2023-06-03T09:31:09.175Z,5.40
2023-06-03T09:33:11.337Z,6.33
2023-06-03T09:35:13.693Z,5.93
2023-06-03T09:37:15.721Z,6.33
2023-06-03T09:39:34.047Z,6.40
2023-06-03T09:41:36.059Z,6.63
2023-06-03T09:43:37.848Z,5.50
2023-06-03T09:45:45.171Z,6.97
2023-06-03T09:47:47.027Z,5.07
2023-06-03T09:50:02.318Z,5.27
2023-06-03T09:52:08.541Z,6.63
2023-06-03T09:54:15.965Z,6.73
2023-06-03T09:56:27.423Z,6.93
2023-06-03T09:58:29.815Z,6.57
2023-06-03T10:00:33.229Z,6.00
2023-06-03T10:02:35.911Z,5.50
2023-06-03T10:04:46.192Z,6.00
2023-06-03T10:06:50.809Z,6.13
2023-06-03T10:08:52.996Z,6.50
2023-06-03T10:10:56.701Z,5.60
2023-06-03T10:15:38.173Z,6.60
2023-06-03T10:17:46.203Z,6.57
2023-06-03T10:19:49.207Z,6.97
2023-06-03T10:21:51.267Z,6.10
2023-06-03T10:23:57.967Z,6.63
2023-06-03T10:26:32.403Z,7.23
2023-06-03T10:28:37.015Z,8.17
2023-06-03T10:30:39.371Z,6.87
2023-06-03T10:32:44.255Z,6.50
2023-06-03T10:34:47.856Z,7.07
2023-06-03T10:36:53.313Z,7.00
2023-06-03T10:38:56.900Z,6.50
2023-06-03T10:41:00.386Z,5.10
2023-06-03T10:43:03.430Z,6.93
2023-06-03T10:45:11.384Z,5.10
2023-06-03T10:47:22.740Z,5.27
2023-06-03T10:49:28.820Z,7.10
2023-06-03T10:51:45.136Z,6.70
2023-06-03T10:53:59.721Z,6.30
2023-06-03T10:56:09.668Z,6.50
2023-06-03T10:58:15.732Z,7.13
2023-06-03T11:00:50.886Z,6.13
2023-06-03T11:03:07.542Z,5.87
2023-06-03T11:05:23.136Z,5.33
2023-06-03T11:07:54.741Z,6.53
2023-06-03T11:09:56.535Z,7.13
2023-06-03T11:12:02.541Z,6.40
2023-06-03T11:14:04.258Z,6.40
2023-06-03T11:16:05.985Z,7.10
2023-06-03T11:18:18.486Z,7.17
2023-06-03T11:20:38.503Z,7.13
2023-06-03T11:22:43.348Z,7.00
2023-06-03T11:24:51.569Z,6.83
2023-06-03T11:26:53.544Z,7.10
2023-06-03T11:28:55.515Z,6.20
2023-06-03T11:30:58.029Z,6.47
2023-06-03T11:33:19.280Z,6.40
2023-06-03T11:35:27.993Z,6.67
2023-06-03T11:37:51.418Z,5.60
2023-06-03T11:40:01.215Z,5.77
2023-06-03T11:42:12.777Z,5.47
2023-06-03T11:44:28.865Z,6.27
2023-06-03T11:46:31.458Z,5.57
2023-06-03T11:48:35.240Z,6.90
2023-06-03T11:50:47.414Z,6.43
2023-06-03T11:52:50.545Z,5.90
2023-06-03T11:54:52.486Z,6.60
2023-06-03T11:56:54.730Z,6.00
2023-06-03T11:58:56.711Z,5.60
2023-06-03T12:01:08.809Z,6.97
2023-06-03T12:03:16.842Z,6.47
2023-06-03T12:05:20.228Z,7.00
2023-06-03T12:07:25.717Z,8.37
2023-06-03T12:09:29.420Z,6.20
2023-06-03T12:11:33.218Z,6.33
2023-06-03T12:13:43.884Z,7.20
2023-06-03T12:15:55.388Z,8.37
2023-06-03T12:18:04.549Z,6.00
2023-06-03T12:20:07.921Z,5.77
2023-06-03T12:22:20.484Z,5.80
2023-06-03T12:24:28.281Z,6.00
2023-06-03T12:26:37.436Z,6.30
2023-06-03T12:28:39.826Z,5.80
2023-06-03T12:30:41.524Z,5.90
2023-06-03T12:32:53.008Z,5.70
2023-06-03T12:34:54.862Z,6.03
2023-06-03T12:36:56.877Z,5.87
2023-06-03T12:39:01.679Z,6.00
2023-06-03T12:41:11.616Z,6.37
2023-06-03T12:43:21.246Z,5.60
2023-06-03T12:45:24.336Z,5.63
2023-06-03T12:47:26.539Z,6.27
2023-06-03T12:49:28.363Z,6.60
2023-06-03T12:51:32.400Z,6.40
2023-06-03T12:53:34.102Z,5.17
2023-06-03T12:55:37.169Z,6.57
2023-06-03T12:57:40.335Z,7.07
2023-06-03T13:00:02.159Z,5.77
2023-06-03T13:02:04.188Z,6.07
2023-06-03T13:04:06.042Z,6.27
2023-06-03T13:06:07.813Z,7.47
2023-06-03T13:08:09.678Z,7.80
2023-06-03T13:10:13.079Z,6.10
2023-06-03T13:12:16.516Z,5.73
2023-06-03T13:14:18.228Z,7.00
2023-06-03T13:16:20.061Z,6.47
2023-06-03T13:18:21.797Z,6.93
2023-06-03T13:20:23.593Z,5.97
2023-06-03T13:22:29.203Z,6.37
2023-06-03T13:24:30.940Z,7.13
2023-06-03T13:26:32.684Z,6.30
2023-06-03T13:28:37.409Z,6.50
2023-06-03T13:30:39.150Z,7.33
2023-06-03T13:32:41.365Z,6.43
2023-06-03T13:34:44.427Z,5.27
2023-06-03T13:36:49.180Z,5.83
2023-06-03T13:38:51.059Z,5.87
2023-06-03T13:40:55.641Z,6.50
2023-06-03T13:42:57.714Z,7.07
2023-06-03T13:45:01.133Z,6.70
2023-06-03T13:47:06.342Z,7.07
2023-06-03T13:49:08.091Z,5.70
2023-06-03T13:51:09.838Z,5.57
2023-06-03T13:53:11.529Z,6.47
2023-06-03T13:55:13.292Z,6.47
2023-06-03T13:57:15.076Z,6.97
2023-06-03T13:59:17.191Z,6.93
2023-06-03T14:01:20.374Z,6.80
2023-06-03T14:03:22.112Z,6.30
2023-06-03T14:05:26.289Z,7.07
2023-06-03T14:07:29.234Z,7.50
2023-06-03T14:09:31.171Z,9.07
2023-06-03T14:11:34.582Z,8.80
2023-06-03T14:13:36.788Z,34.40
2023-06-03T14:15:38.675Z,21.00
2023-06-03T14:17:41.949Z,12.73
2023-06-03T14:19:43.613Z,9.30
2023-06-03T14:21:45.679Z,7.63
2023-06-03T14:23:47.445Z,8.90
2023-06-03T14:25:49.130Z,6.97
2023-06-03T14:27:51.011Z,7.50
2023-06-03T14:29:56.629Z,7.00
2023-06-03T14:32:01.246Z,5.60
2023-06-03T14:34:16.567Z,6.60
2023-06-03T14:36:18.420Z,7.20
2023-06-03T14:38:20.219Z,5.60
2023-06-03T14:40:22.707Z,6.23
2023-06-03T14:42:24.750Z,7.17
2023-06-03T14:44:29.579Z,7.77
2023-06-03T14:46:33.176Z,6.20
2023-06-03T14:48:35.797Z,6.90
2023-06-03T14:50:44.936Z,6.87
2023-06-03T14:52:46.729Z,7.43
2023-06-03T14:54:48.564Z,6.37
2023-06-03T14:56:50.306Z,7.30
2023-06-03T14:58:52.193Z,6.00
2023-06-03T15:01:00.079Z,6.40
2023-06-03T15:03:01.966Z,6.10
2023-06-03T15:05:03.994Z,6.27
2023-06-03T15:07:10.454Z,6.20
2023-06-03T15:09:13.887Z,6.50
2023-06-03T15:11:15.788Z,5.90
2023-06-03T15:13:17.714Z,6.10
2023-06-03T15:15:19.473Z,5.80
2023-06-03T15:17:21.192Z,6.13
2023-06-03T15:19:31.726Z,6.33
2023-06-03T15:21:34.618Z,6.97
2023-06-03T15:23:45.322Z,7.90
2023-06-03T15:25:48.180Z,6.33
2023-06-03T15:27:49.984Z,6.80
2023-06-03T15:29:57.911Z,6.37
2023-06-03T15:31:59.775Z,6.50
2023-06-03T15:34:01.722Z,5.70
2023-06-03T15:36:05.169Z,6.63
2023-06-03T15:38:14.538Z,7.00
2023-06-03T15:40:17.860Z,6.33
2023-06-03T15:42:19.930Z,6.20
2023-06-03T15:44:25.004Z,5.73
2023-06-03T15:46:26.853Z,6.67
2023-06-03T15:48:28.667Z,7.20
2023-06-03T15:50:30.447Z,6.23
2023-06-03T15:52:32.263Z,6.67
2023-06-03T15:54:33.990Z,6.13
2023-06-03T15:56:52.860Z,7.07
2023-06-03T15:58:54.604Z,6.10
2023-06-03T16:00:59.821Z,7.83
2023-06-03T16:03:01.654Z,6.50
2023-06-03T16:05:03.876Z,5.60
2023-06-03T16:07:05.682Z,6.80
2023-06-03T16:09:14.120Z,6.27
2023-06-03T16:11:15.816Z,6.30
2023-06-03T16:13:18.990Z,6.77
2023-06-03T16:15:20.864Z,6.17
2023-06-03T16:17:28.823Z,6.03
2023-06-03T16:19:30.981Z,5.63
2023-06-03T16:21:32.741Z,6.50
2023-06-03T16:23:34.561Z,6.50
2023-06-03T16:25:43.724Z,5.53
2023-06-03T16:27:47.489Z,5.77
2023-06-03T16:29:50.644Z,6.40
2023-06-03T16:31:58.325Z,6.77
2023-06-03T16:34:00.169Z,6.47
2023-06-03T16:36:01.936Z,7.17
2023-06-03T16:38:03.923Z,7.13
2023-06-03T16:40:08.505Z,6.00
2023-06-03T16:42:10.193Z,6.17
2023-06-03T16:44:11.951Z,7.53
2023-06-03T16:46:16.815Z,7.40
2023-06-03T16:48:18.520Z,6.20
2023-06-03T16:50:20.355Z,7.00
2023-06-03T16:52:30.285Z,6.87
2023-06-03T16:54:32.030Z,4.73
2023-06-03T16:56:33.828Z,6.20
2023-06-03T16:58:35.667Z,6.50
2023-06-03T17:00:44.098Z,6.00
2023-06-03T17:02:47.377Z,5.70
2023-06-03T17:04:49.349Z,7.33
2023-06-03T17:06:51.000Z,6.60
2023-06-03T17:09:01.519Z,4.63
2023-06-03T17:11:03.365Z,6.27
2023-06-03T17:13:05.241Z,6.90
2023-06-03T17:15:16.245Z,6.47
2023-06-03T17:17:19.459Z,6.40
2023-06-03T17:19:31.393Z,5.33
2023-06-03T17:21:33.100Z,5.70
2023-06-03T17:23:34.984Z,6.10
2023-06-03T17:25:43.020Z,5.67
2023-06-03T17:27:44.819Z,4.83
2023-06-03T17:29:47.471Z,6.03
2023-06-03T17:31:49.280Z,5.60
2023-06-03T17:33:51.144Z,7.00
2023-06-03T17:36:02.942Z,7.27
2023-06-03T17:38:04.654Z,5.67
2023-06-03T17:40:14.069Z,5.03
2023-06-03T17:42:15.926Z,4.70
2023-06-03T17:44:20.505Z,5.33
2023-06-03T17:46:29.574Z,5.70
2023-06-03T17:48:32.540Z,5.90
2023-06-03T17:50:34.408Z,10.97
2023-06-03T17:52:40.027Z,6.20
2023-06-03T17:54:41.806Z,14.17
2023-06-03T17:56:43.511Z,17.50
2023-06-03T17:58:45.411Z,7.97
2023-06-03T18:00:48.883Z,6.80
2023-06-03T18:03:00.438Z,7.10
2023-06-03T18:05:02.463Z,6.00
2023-06-03T18:07:04.613Z,6.30
2023-06-03T18:09:10.354Z,5.83
2023-06-03T18:11:12.215Z,5.57
2023-06-03T18:13:14.121Z,5.70
2023-06-03T18:15:15.970Z,5.30
2023-06-03T18:17:18.199Z,6.40
2023-06-03T18:19:29.148Z,4.30
2023-06-03T18:21:31.057Z,6.23
2023-06-03T18:23:36.108Z,5.47
2023-06-03T18:25:48.682Z,5.40
2023-06-03T18:27:50.838Z,5.20
2023-06-03T18:29:52.821Z,4.80
2023-06-03T18:31:57.037Z,4.80
2023-06-03T18:34:00.408Z,5.13
2023-06-03T18:36:02.471Z,5.57
2023-06-03T18:38:04.472Z,5.90
2023-06-03T18:40:10.608Z,6.27
2023-06-03T18:42:15.794Z,5.30
2023-06-03T18:44:23.056Z,7.27
2023-06-03T18:46:25.334Z,8.07
2023-06-03T18:48:30.475Z,5.90
2023-06-03T18:50:44.486Z,5.70
2023-06-03T18:52:47.448Z,5.70
2023-06-03T18:55:04.460Z,5.30
2023-06-03T18:57:13.940Z,5.63
2023-06-03T18:59:18.737Z,5.70
2023-06-03T19:01:20.810Z,5.40
2023-06-03T19:03:28.308Z,5.50
2023-06-03T19:05:30.970Z,6.30
2023-06-03T19:07:32.691Z,5.53
2023-06-03T19:09:34.611Z,5.37
2023-06-03T19:11:38.296Z,6.20
2023-06-03T19:13:41.399Z,6.07
2023-06-03T19:15:43.371Z,5.63
2023-06-03T19:17:46.793Z,5.40
2023-06-03T19:19:49.050Z,5.27
2023-06-03T19:21:50.808Z,6.07
2023-06-03T19:23:54.574Z,5.43
2023-06-03T19:25:56.311Z,5.07
2023-06-03T19:27:58.930Z,5.20
2023-06-03T19:30:02.367Z,5.60
2023-06-03T19:32:04.493Z,5.40
2023-06-03T19:34:06.500Z,5.83
2023-06-03T19:36:10.116Z,6.20
2023-06-03T19:38:11.985Z,6.70
2023-06-03T19:40:15.299Z,5.80
2023-06-03T19:42:17.032Z,5.83
2023-06-03T19:44:18.981Z,4.87
2023-06-03T19:46:23.761Z,5.27
2023-06-03T19:48:25.518Z,4.80
2023-06-03T19:50:27.297Z,4.67
2023-06-03T19:52:29.788Z,5.90
2023-06-03T19:54:32.366Z,6.00
2023-06-03T19:56:34.152Z,5.27
2023-06-03T19:58:36.335Z,4.83
2023-06-03T20:00:41.637Z,4.50
2023-06-03T20:02:44.997Z,5.43
2023-06-03T20:04:47.640Z,4.53
2023-06-03T20:06:49.491Z,5.30
2023-06-03T20:08:51.528Z,6.37
2023-06-03T20:10:54.336Z,5.77
2023-06-03T20:12:56.524Z,4.83
2023-06-03T20:14:58.415Z,4.90
2023-06-03T20:17:00.254Z,4.53
2023-06-03T20:19:03.443Z,4.50
2023-06-03T20:21:05.289Z,4.67
2023-06-03T20:23:07.234Z,3.77
2023-06-03T20:25:09.484Z,4.60
2023-06-03T20:27:12.013Z,4.40
2023-06-03T20:29:15.544Z,4.13
2023-06-03T20:31:17.395Z,3.90
2023-06-03T20:33:19.497Z,3.90
2023-06-03T20:35:23.050Z,4.23
2023-06-03T20:37:24.707Z,3.70
2023-06-03T20:39:26.707Z,3.37
2023-06-03T20:41:30.029Z,3.13
2023-06-03T20:43:31.883Z,4.23
2023-06-03T20:45:33.848Z,3.40
2023-06-03T20:47:39.556Z,3.73
2023-06-03T20:49:41.333Z,3.57
2023-06-03T20:51:44.636Z,3.70
2023-06-03T20:53:46.364Z,2.97
2023-06-03T20:55:48.230Z,3.50
2023-06-03T20:57:49.887Z,4.73
2023-06-03T20:59:53.914Z,3.20
2023-06-03T21:01:55.748Z,4.00
2023-06-03T21:03:57.638Z,3.43
2023-06-03T21:05:59.452Z,3.83
2023-06-03T21:08:03.007Z,3.13
2023-06-03T21:10:07.830Z,3.30
2023-06-03T21:12:12.362Z,2.90
2023-06-03T21:14:14.429Z,3.40
2023-06-03T21:16:18.711Z,3.50
2023-06-03T21:18:20.476Z,3.63
2023-06-03T21:20:22.251Z,4.17
2023-06-03T21:22:27.114Z,3.43
2023-06-03T21:24:30.963Z,4.37
2023-06-03T21:26:32.670Z,4.23
2023-06-03T21:28:34.372Z,4.30
2023-06-03T21:30:38.452Z,4.57
2023-06-03T21:32:40.277Z,3.77
2023-06-03T21:34:42.311Z,3.60
2023-06-03T21:36:44.080Z,4.00
2023-06-03T21:38:45.772Z,4.10
2023-06-03T21:40:48.910Z,3.83
2023-06-03T21:42:53.698Z,4.20
2023-06-03T21:44:55.338Z,3.67
2023-06-03T21:46:56.996Z,4.00
2023-06-03T21:48:58.701Z,3.47
2023-06-03T21:51:00.579Z,3.63
2023-06-03T21:53:07.745Z,3.77
2023-06-03T21:55:09.999Z,3.47
2023-06-03T21:57:13.345Z,3.67
2023-06-03T21:59:15.170Z,4.03
2023-06-03T22:01:17.186Z,3.50
2023-06-03T22:03:18.952Z,3.33
2023-06-03T22:05:20.872Z,3.20
2023-06-03T22:07:24.885Z,3.20
2023-06-03T22:09:26.580Z,3.40
2023-06-03T22:11:28.510Z,4.40
2023-06-03T22:13:31.588Z,3.83
2023-06-03T22:15:33.722Z,3.60
2023-06-03T22:17:35.736Z,3.50
2023-06-03T22:19:40.088Z,3.90
2023-06-03T22:21:41.984Z,3.60
2023-06-03T22:23:43.805Z,3.40
2023-06-03T22:25:48.004Z,3.90
2023-06-03T22:27:49.698Z,3.40
2023-06-03T22:29:55.248Z,3.60
2023-06-03T22:31:57.158Z,3.00
2023-06-03T22:33:58.959Z,4.33
2023-06-03T22:36:00.654Z,3.60
2023-06-03T22:38:03.251Z,3.63
2023-06-03T22:40:06.079Z,3.67
2023-06-03T22:42:10.838Z,3.70
2023-06-03T22:44:12.689Z,3.40
2023-06-03T22:46:15.687Z,3.50
2023-06-03T22:48:17.394Z,3.20
2023-06-03T22:50:19.444Z,4.00
2023-06-03T22:52:23.691Z,3.70
2023-06-03T22:54:25.547Z,4.40
2023-06-03T22:56:31.541Z,4.37
2023-06-03T22:58:33.121Z,3.10
2023-06-03T23:00:34.848Z,3.10
2023-06-03T23:02:40.606Z,3.30
2023-06-03T23:04:42.554Z,3.43
2023-06-03T23:06:44.191Z,3.50
2023-06-03T23:08:45.922Z,3.10
2023-06-03T23:10:47.649Z,3.10
2023-06-03T23:12:49.573Z,2.77
2023-06-03T23:14:54.287Z,2.80
2023-06-03T23:16:55.957Z,2.50
2023-06-03T23:18:59.005Z,3.43
2023-06-03T23:21:02.283Z,3.00
2023-06-03T23:23:03.928Z,2.37
2023-06-03T23:25:06.547Z,3.00
2023-06-03T23:27:08.584Z,2.80
2023-06-03T23:29:10.445Z,2.77
2023-06-03T23:31:12.246Z,2.30
2023-06-03T23:33:14.947Z,2.83
2023-06-03T23:35:20.422Z,2.70
2023-06-03T23:37:22.105Z,2.37
2023-06-03T23:39:23.843Z,2.53
2023-06-03T23:41:25.685Z,2.70
2023-06-03T23:43:27.338Z,2.10
2023-06-03T23:45:29.028Z,2.30
2023-06-03T23:47:30.811Z,2.70
2023-06-03T23:49:32.677Z,2.60
2023-06-03T23:51:36.700Z,2.50
2023-06-03T23:53:38.342Z,2.20
2023-06-03T23:55:40.126Z,2.10
2023-06-03T23:57:42.842Z,2.07
2023-06-03T23:59:44.606Z,2.53
